Terminal Aerodrome Forecast
Issued by NWS Charleston, WV

Home | Current Version | Previous Version | Text Only | Print | Product List | Glossary On
Versions: 1 2 3 4 5 6 7 8 9 10 11 12 13 14 15 16 17 18 19 20 21 22 23 24 25 26
000
FTUS41 KRLX 271740
TAFEKN
TAF
KEKN 271740Z 2718/2818 23007KT P6SM OVC015
     FM272000 28006KT P6SM VCTS BKN030CB
      TEMPO 2722/2724 4SM TSRA OVC040CB
     FM280100 00000KT P6SM BKN035
     FM280600 19004KT P6SM BKN014
     FM281500 19006KT P6SM BKN020
     FM281700 18006KT 3SM SHRA VCTS BKN030CB=

USA.gov is the U.S. government's official web portal to all federal, state and local government web resources and services.